Sandra Hugh — WDD9019 — position and weather

sailwx.info

Track history (hours):
 
Tides and Currents Weather Stations Pressure Air Temp Water Temp Dewpoint Dewpoint Depression Visibility Wind Speed Wind Dir Waves Ship Positions

Sandra Hugh

Owner: AMNAV Maritime Corporation, Oakland, CA. More information available from US FCC via Universal Licensing System and Coast Guard Vessel Documentation Center.

Last reported at 2017-Sep-22 01:59 UTC. Time now 2017-Sep-23 09:31 UTC.
Position N 37°46' W 122°21'.

Length 24 m; draft 4.9 m.

Type: Tug. MMSI: 367305920.

Date/timePositionNaut miles runAvg speedWind from/ knotsBaromVisibWave heightAir tempDewpointWater temp
2017-Sep-22 01:59N 37°46' W 122°21'0 0.5
2017-Sep-22 01:31N 37°47' W 122°21'0 0.1
2017-Sep-22 00:58N 37°46' W 122°21'0 0.1
2017-Sep-22 00:29N 37°47' W 122°21'0 0.1
2017-Sep-21 23:59N 37°46' W 122°21'0 0.0
2017-Sep-21 23:28N 37°47' W 122°21'0 0.1
2017-Sep-21 23:00N 37°46' W 122°21'0 0.1
2017-Sep-21 22:29N 37°46' W 122°21'0 0.5
2017-Sep-21 21:59N 37°46' W 122°21'0 0.9
2017-Sep-21 21:29N 37°46' W 122°21'0 0.4
2017-Sep-21 20:59N 37°46' W 122°21'0 0.5
2017-Sep-21 20:30N 37°46' W 122°21'0 0.2
2017-Sep-21 20:00N 37°46' W 122°21'0 0.1
2017-Sep-21 19:28N 37°46' W 122°21'2 4.1
2017-Sep-21 19:00N 37°48' W 122°21'1 2.1
2017-Sep-21 18:29N 37°49' W 122°20'1 2.4
2017-Sep-21 18:00N 37°48' W 122°21'1 1.4
2017-Sep-21 17:30N 37°49' W 122°20'1 2.6
2017-Sep-21 16:58N 37°49' W 122°19'0 0.0
2017-Sep-21 16:28N 37°49' W 122°19'0 0.0
2017-Sep-21 15:58N 37°49' W 122°19'0 0.0
2017-Sep-21 15:28N 37°49' W 122°19'0 0.0
2017-Sep-21 14:58N 37°49' W 122°19'0 0.0
2017-Sep-21 14:28N 37°49' W 122°19'0 0.0
2017-Sep-21 13:58N 37°49' W 122°19'0 0.0
2017-Sep-21 13:28N 37°49' W 122°19'0 0.0
2017-Sep-21 12:58N 37°49' W 122°19'0 0.0
2017-Sep-21 12:28N 37°49' W 122°19'0 0.0
2017-Sep-21 11:58N 37°49' W 122°19'0 0.0
2017-Sep-21 11:28N 37°49' W 122°19'0 0.0
2017-Sep-21 10:58N 37°49' W 122°19'0 0.0
2017-Sep-21 10:28N 37°49' W 122°19'0 0.0
2017-Sep-21 09:58N 37°49' W 122°19'0 0.0
2017-Sep-21 09:28N 37°49' W 122°19'0 0.0
2017-Sep-21 08:58N 37°49' W 122°19'0 0.0
2017-Sep-21 08:28N 37°49' W 122°19'0 0.0
2017-Sep-21 07:55N 37°49' W 122°19'0 0.0
2017-Sep-21 07:28N 37°49' W 122°19'0 0.0
2017-Sep-21 06:58N 37°49' W 122°19'0 0.0
2017-Sep-21 06:25N 37°49' W 122°19'0 0.0
2017-Sep-21 05:55N 37°49' W 122°19'0 0.0
2017-Sep-21 05:22N 37°49' W 122°19'0 0.0
2017-Sep-21 04:58N 37°49' W 122°19'1 2.2
2017-Sep-21 04:30N 37°49' W 122°20'1 2.1
2017-Sep-21 03:59N 37°48' W 122°19'1 2.6
2017-Sep-21 03:30N 37°48' W 122°18'1 2.6
2017-Sep-21 03:00N 37°48' W 122°19'3 5.1
2017-Sep-21 02:30N 37°48' W 122°22'2 3.0
2017-Sep-21 01:58N 37°48' W 122°21'0 0.0
2017-Sep-21 01:28N 37°48' W 122°21'0 0.0
2017-Sep-21 00:58N 37°48' W 122°21'0 0.8
2017-Sep-21 00:31N 37°49' W 122°20'0 0.9
2017-Sep-20 23:58N 37°49' W 122°20'0 0.1
2017-Sep-20 23:28N 37°49' W 122°20'1 2.0
2017-Sep-20 22:58N 37°49' W 122°19'0 0.0
2017-Sep-20 22:22N 37°49' W 122°19'0 0.0
2017-Sep-20 21:58N 37°49' W 122°19'0 0.0
2017-Sep-20 21:28N 37°49' W 122°19'0 0.0
2017-Sep-20 20:58N 37°49' W 122°19'0 0.0
2017-Sep-20 20:28N 37°49' W 122°19'0 0.0
2017-Sep-20 19:58N 37°49' W 122°19'0 0.0
2017-Sep-20 19:28N 37°49' W 122°19'0 0.0
2017-Sep-20 18:58N 37°49' W 122°19'0 0.0
2017-Sep-20 18:28N 37°49' W 122°19'0 0.0
2017-Sep-20 17:58N 37°49' W 122°19'0 0.0
2017-Sep-20 17:28N 37°49' W 122°19'0 0.0
2017-Sep-20 16:55N 37°49' W 122°19'0 0.0
2017-Sep-20 16:25N 37°49' W 122°19'0 0.0
2017-Sep-20 15:58N 37°49' W 122°19'0 0.0
2017-Sep-20 15:28N 37°49' W 122°19'0 0.0
2017-Sep-20 14:52N 37°49' W 122°19'0 0.0
2017-Sep-20 13:58N 37°49' W 122°19'2 4.0
2017-Sep-20 13:30N 37°48' W 122°18'0 0.4
2017-Sep-20 12:59N 37°48' W 122°18'1 1.5
2017-Sep-20 12:30N 37°48' W 122°19'3 5.3
2017-Sep-20 12:00N 37°48' W 122°22'0 0.8
2017-Sep-20 11:30N 37°48' W 122°22'1 2.6
2017-Sep-20 10:58N 37°48' W 122°21'0 0.0
2017-Sep-20 10:28N 37°48' W 122°21'1 1.8
2017-Sep-20 10:01N 37°48' W 122°20'1 1.7
2017-Sep-20 09:30N 37°48' W 122°20'2 3.0
2017-Sep-20 08:58N 37°49' W 122°19'0 0.0
2017-Sep-20 08:28N 37°49' W 122°19'0 0.0
2017-Sep-20 07:59N 37°49' W 122°19'0 0.0
2017-Sep-20 07:28N 37°49' W 122°19'0 0.0
2017-Sep-20 06:58N 37°49' W 122°19'0 0.0
2017-Sep-20 06:29N 37°49' W 122°19'0 0.0
2017-Sep-20 05:59N 37°49' W 122°19'0 0.0
2017-Sep-20 05:29N 37°49' W 122°19'0 0.0
2017-Sep-20 04:59N 37°49' W 122°19'0 0.0
2017-Sep-20 04:29N 37°49' W 122°19'0 0.0
2017-Sep-20 03:58N 37°49' W 122°19'0 0.0
2017-Sep-20 03:28N 37°49' W 122°19'0 0.0
2017-Sep-20 02:59N 37°49' W 122°19'0 0.0
2017-Sep-20 02:28N 37°49' W 122°19'0 0.0
2017-Sep-20 01:59N 37°49' W 122°19'0 0.0
2017-Sep-20 01:28N 37°49' W 122°19'0 0.0
2017-Sep-20 00:56N 37°49' W 122°19'2 3.2
2017-Sep-20 00:28N 37°48' W 122°19'0 0.7
2017-Sep-19 23:59N 37°48' W 122°19'1 2.6
2017-Sep-19 23:28N 37°48' W 122°17'2 4.1
2017-Sep-19 23:00N 37°48' W 122°20'2 4.0
2017-Sep-19 22:30N 37°48' W 122°22'1 2.6
2017-Sep-19 22:00N 37°48' W 122°21'2 3.3
2017-Sep-19 21:30N 37°49' W 122°19'0 0.8
2017-Sep-19 20:59N 37°49' W 122°19'0 0.0
2017-Sep-19 20:29N 37°49' W 122°19'0 0.0
2017-Sep-19 19:59N 37°49' W 122°19'0 0.0
2017-Sep-19 19:29N 37°49' W 122°19'0 0.0
2017-Sep-19 18:59N 37°49' W 122°19'0 0.0
2017-Sep-19 18:29N 37°49' W 122°19'0 0.0
2017-Sep-19 17:56N 37°49' W 122°19'0 0.0
2017-Sep-19 17:29N 37°49' W 122°19'0 0.0
2017-Sep-19 16:59N 37°49' W 122°19'0 0.0
2017-Sep-19 16:29N 37°49' W 122°19'0 0.0
2017-Sep-19 15:56N 37°49' W 122°19'0 0.0
2017-Sep-19 15:29N 37°49' W 122°19'0 0.0
2017-Sep-19 14:59N 37°49' W 122°19'0 0.0
2017-Sep-19 14:23N 37°49' W 122°19'0 0.0
2017-Sep-19 13:59N 37°49' W 122°19'0 0.0
2017-Sep-19 13:29N 37°49' W 122°19'0 0.0
2017-Sep-19 12:59N 37°49' W 122°19'0 0.0
2017-Sep-19 12:29N 37°49' W 122°19'0 0.0
2017-Sep-19 11:59N 37°49' W 122°19'0 0.0
2017-Sep-19 11:29N 37°49' W 122°19'0 0.0
2017-Sep-19 10:59N 37°49' W 122°19'0 0.0
2017-Sep-19 10:29N 37°49' W 122°19'0 0.0
2017-Sep-19 09:59N 37°49' W 122°19'0 0.0
2017-Sep-19 09:29N 37°49' W 122°19'2 3.8
2017-Sep-19 09:01N 37°48' W 122°20'2 4.2
2017-Sep-19 08:30N 37°48' W 122°18'0 0.1
2017-Sep-19 08:00N 37°48' W 122°18'1 2.5
2017-Sep-19 07:30N 37°48' W 122°19'2 3.0
2017-Sep-19 06:58N 37°49' W 122°19'0 0.0
2017-Sep-19 06:28N 37°49' W 122°19'0 0.0
2017-Sep-19 05:58N 37°49' W 122°19'0 0.0
2017-Sep-19 05:28N 37°49' W 122°19'0 0.0
2017-Sep-19 04:58N 37°49' W 122°19'0 0.0
2017-Sep-19 04:28N 37°49' W 122°19'0 0.0
2017-Sep-19 03:58N 37°49' W 122°19'0 0.0
2017-Sep-19 03:28N 37°49' W 122°19'0 0.0
2017-Sep-19 02:58N 37°49' W 122°19'0 0.0
2017-Sep-19 02:28N 37°49' W 122°19'0 0.0
2017-Sep-19 01:58N 37°49' W 122°19'0 0.0
2017-Sep-19 01:28N 37°49' W 122°19'1 2.0
2017-Sep-19 01:00N 37°49' W 122°20'0 0.5
2017-Sep-19 00:30N 37°49' W 122°19'0 0.0
2017-Sep-18 23:57N 37°49' W 122°19'1 1.8
2017-Sep-18 23:30N 37°49' W 122°19'0 0.0
2017-Sep-18 23:00N 37°49' W 122°19'0 0.0
2017-Sep-18 22:30N 37°49' W 122°19'0 0.0
2017-Sep-18 22:00N 37°49' W 122°19'0 0.0
2017-Sep-18 21:30N 37°49' W 122°19'0 0.0
2017-Sep-18 21:00N 37°49' W 122°19'0 0.0
2017-Sep-18 20:30N 37°49' W 122°19'0 0.0
2017-Sep-18 20:00N 37°49' W 122°19'0 0.0
2017-Sep-18 19:30N 37°49' W 122°19'0 0.0
2017-Sep-18 19:00N 37°49' W 122°19'0 0.0
2017-Sep-18 18:30N 37°49' W 122°19'0 0.0
2017-Sep-18 17:57N 37°49' W 122°19'0 0.0
2017-Sep-18 17:30N 37°49' W 122°19'0 0.0
2017-Sep-18 17:00N 37°49' W 122°19'0 0.0
2017-Sep-18 16:30N 37°49' W 122°19'0 0.0
2017-Sep-18 16:00N 37°49' W 122°19'0 0.0
2017-Sep-18 15:30N 37°49' W 122°19'0 0.0
2017-Sep-18 15:00N 37°49' W 122°19'0 0.0
2017-Sep-18 14:30N 37°49' W 122°19'0 0.0
2017-Sep-18 14:00N 37°49' W 122°19'0 0.0
2017-Sep-18 13:30N 37°49' W 122°19'0 0.0
2017-Sep-18 13:00N 37°49' W 122°19'0 0.0
2017-Sep-18 12:30N 37°49' W 122°19'0 0.0
2017-Sep-18 12:00N 37°49' W 122°19'0 0.0
2017-Sep-18 11:30N 37°49' W 122°19'0 0.0
2017-Sep-18 11:00N 37°49' W 122°19'0 0.0
2017-Sep-18 10:30N 37°49' W 122°19'0 0.0
2017-Sep-18 10:00N 37°49' W 122°19'0 0.0
2017-Sep-18 09:30N 37°49' W 122°19'0 0.0
2017-Sep-18 09:00N 37°49' W 122°19'0 0.0
2017-Sep-18 08:30N 37°49' W 122°19'0 0.0
2017-Sep-18 08:00N 37°49' W 122°19'0 0.0
2017-Sep-18 07:30N 37°49' W 122°19'0 0.0
2017-Sep-18 07:00N 37°49' W 122°19'0 0.0
2017-Sep-18 06:30N 37°49' W 122°19'0 0.0
2017-Sep-18 06:00N 37°49' W 122°19'0 0.0
2017-Sep-18 05:30N 37°49' W 122°19'0 0.0
2017-Sep-18 05:00N 37°49' W 122°19'0 0.0
2017-Sep-18 04:30N 37°49' W 122°19'0 0.0
2017-Sep-18 04:00N 37°49' W 122°19'0 0.0
2017-Sep-18 03:30N 37°49' W 122°19'0 0.0
2017-Sep-18 03:00N 37°49' W 122°19'0 0.0
2017-Sep-18 02:30N 37°49' W 122°19'0 0.0
2017-Sep-18 02:00N 37°49' W 122°19'0 0.0
2017-Sep-18 01:30N 37°49' W 122°19'0 0.0
2017-Sep-18 01:01N 37°49' W 122°19'2 3.4
2017-Sep-18 00:30N 37°48' W 122°19'1 1.5
2017-Sep-18 00:01N 37°48' W 122°18'1 1.1
2017-Sep-17 23:31N 37°48' W 122°18'1 2.1
2017-Sep-17 23:00N 37°48' W 122°20'2 2.8
2017-Sep-17 22:25N 37°49' W 122°19'0 0.0
2017-Sep-17 21:58N 37°49' W 122°19'0 0.0
2017-Sep-17 21:28N 37°49' W 122°19'0 0.0
2017-Sep-17 20:58N 37°49' W 122°19'0 0.0
2017-Sep-17 20:25N 37°49' W 122°19'0 0.0
2017-Sep-17 19:58N 37°49' W 122°19'0 0.0
2017-Sep-17 19:28N 37°49' W 122°19'0 0.0
2017-Sep-17 18:58N 37°49' W 122°19'0 0.0
2017-Sep-17 18:28N 37°49' W 122°19'0 0.0
2017-Sep-17 17:58N 37°49' W 122°19'0 0.0
2017-Sep-17 17:28N 37°49' W 122°19'0 0.0
2017-Sep-17 16:58N 37°49' W 122°19'0 0.0
2017-Sep-17 16:28N 37°49' W 122°19'0 0.0
2017-Sep-17 15:58N 37°49' W 122°19'0 0.0
2017-Sep-17 15:28N 37°49' W 122°19'0 0.0
2017-Sep-17 14:58N 37°49' W 122°19'0 0.0
2017-Sep-17 14:28N 37°49' W 122°19'0 0.0
2017-Sep-17 13:58N 37°49' W 122°19'0 0.0
2017-Sep-17 13:29N 37°49' W 122°19'1 2.5
2017-Sep-17 12:58N 37°49' W 122°20'0 0.6
2017-Sep-17 12:31N 37°49' W 122°20'1 2.9
2017-Sep-17 12:00N 37°48' W 122°22'1 1.6
2017-Sep-17 11:29N 37°48' W 122°21'0 0.0
2017-Sep-17 10:59N 37°48' W 122°21'0 0.0
2017-Sep-17 10:29N 37°48' W 122°21'0 0.0
2017-Sep-17 09:59N 37°48' W 122°21'1 1.6
2017-Sep-17 09:28N 37°49' W 122°20'0 0.3
2017-Sep-17 08:57N 37°49' W 122°20'1 2.2
2017-Sep-17 08:30N 37°49' W 122°19'0 0.0
2017-Sep-17 08:00N 37°49' W 122°19'0 0.0
2017-Sep-17 07:30N 37°49' W 122°19'0 0.0
2017-Sep-17 07:00N 37°49' W 122°19'0 0.0
2017-Sep-17 06:30N 37°49' W 122°19'0 0.0
2017-Sep-17 06:00N 37°49' W 122°19'0 0.0
2017-Sep-17 05:30N 37°49' W 122°19'0 0.0
2017-Sep-17 05:00N 37°49' W 122°19'0 0.0
2017-Sep-17 04:30N 37°49' W 122°19'0 0.0
2017-Sep-17 04:00N 37°49' W 122°19'0 0.0
2017-Sep-17 03:30N 37°49' W 122°19'0 0.0
2017-Sep-17 03:00N 37°49' W 122°19'0 0.0
2017-Sep-17 02:30N 37°49' W 122°19'0 0.0
2017-Sep-17 02:00N 37°49' W 122°19'0 0.0
2017-Sep-17 01:30N 37°49' W 122°19'0 0.0
2017-Sep-17 01:00N 37°49' W 122°19'0 0.0
2017-Sep-17 00:30N 37°49' W 122°19'0 0.0
2017-Sep-17 00:00N 37°49' W 122°19'0 0.0
2017-Sep-16 23:30N 37°49' W 122°19'0 0.0
2017-Sep-16 23:00N 37°49' W 122°19'0 0.0
2017-Sep-16 22:30N 37°49' W 122°19'0 0.0
2017-Sep-16 22:00N 37°49' W 122°19'0 0.0
2017-Sep-16 21:30N 37°49' W 122°19'0 0.0
2017-Sep-16 21:00N 37°49' W 122°19'0 0.0
2017-Sep-16 20:30N 37°49' W 122°19'0 0.0
2017-Sep-16 20:00N 37°49' W 122°19'0 0.0
2017-Sep-16 19:30N 37°49' W 122°19'0 0.0
2017-Sep-16 19:00N 37°49' W 122°19'0 0.0
2017-Sep-16 18:30N 37°49' W 122°19'0 0.0
2017-Sep-16 18:00N 37°49' W 122°19'0 0.0
2017-Sep-16 17:30N 37°49' W 122°19'0 0.0
2017-Sep-16 17:00N 37°49' W 122°19'0 0.0
2017-Sep-16 16:30N 37°49' W 122°19'0 0.0
2017-Sep-16 16:00N 37°49' W 122°19'0 0.0
2017-Sep-16 15:30N 37°49' W 122°19'0 0.0
2017-Sep-16 15:00N 37°49' W 122°19'0 0.0
2017-Sep-16 14:30N 37°49' W 122°19'0 0.0
2017-Sep-16 14:00N 37°49' W 122°19'2 2.7
2017-Sep-16 13:25N 37°48' W 122°20'0 1.0
2017-Sep-16 13:00N 37°49' W 122°20'0 0.7
2017-Sep-16 12:31N 37°49' W 122°20'0 0.7
2017-Sep-16 12:01N 37°48' W 122°21'0 0.0
2017-Sep-16 11:26N 37°48' W 122°21'0 0.0
2017-Sep-16 10:59N 37°48' W 122°21'2 4.4
2017-Sep-16 10:31N 37°48' W 122°18'0 0.9
2017-Sep-16 10:01N 37°48' W 122°19'0 0.7
2017-Sep-16 09:29N 37°48' W 122°19'1 2.7
2017-Sep-16 09:01N 37°48' W 122°21'2 3.6
2017-Sep-16 08:30N 37°49' W 122°19'0 0.0
2017-Sep-16 08:00N 37°49' W 122°19'0 0.0
2017-Sep-16 07:30N 37°49' W 122°19'0 0.0
2017-Sep-16 07:00N 37°49' W 122°19'0 0.0
2017-Sep-16 06:30N 37°49' W 122°19'0 0.0
2017-Sep-16 06:00N 37°49' W 122°19'0 0.0
2017-Sep-16 05:30N 37°49' W 122°19'0 0.0
2017-Sep-16 05:00N 37°49' W 122°19'0 0.0
2017-Sep-16 04:30N 37°49' W 122°19'0 0.0
2017-Sep-16 04:00N 37°49' W 122°19'0 0.0
2017-Sep-16 03:30N 37°49' W 122°19'0 0.0
2017-Sep-16 03:00N 37°49' W 122°19'0 0.0
2017-Sep-16 02:30N 37°49' W 122°19'0 0.0
2017-Sep-16 02:00N 37°49' W 122°19'1 2.0
2017-Sep-16 01:31N 37°49' W 122°20'2 4.2
2017-Sep-16 01:00N 37°48' W 122°17'1 1.7
2017-Sep-16 00:29N 37°48' W 122°18'1 1.5
2017-Sep-16 00:00N 37°48' W 122°19'1 1.9
2017-Sep-15 23:29N 37°49' W 122°20'0 0.7
2017-Sep-15 23:00N 37°49' W 122°20'1 1.3
2017-Sep-15 22:30N 37°48' W 122°21'2 3.7
2017-Sep-15 21:58N 37°49' W 122°19'0 0.0
2017-Sep-15 21:28N 37°49' W 122°19'0 0.0
2017-Sep-15 20:58N 37°49' W 122°19'0 0.0
2017-Sep-15 20:28N 37°49' W 122°19'0 0.0
2017-Sep-15 19:58N 37°49' W 122°19'0 0.0
2017-Sep-15 19:28N 37°49' W 122°19'0 0.0
2017-Sep-15 18:55N 37°49' W 122°19'0 0.0
2017-Sep-15 18:28N 37°49' W 122°19'0 0.0
2017-Sep-15 17:58N 37°49' W 122°19'0 0.0
2017-Sep-15 17:28N 37°49' W 122°19'0 0.0
2017-Sep-15 16:58N 37°49' W 122°19'0 0.0
2017-Sep-15 16:28N 37°49' W 122°19'0 0.0
2017-Sep-15 15:58N 37°49' W 122°19'0 0.0
2017-Sep-15 15:28N 37°49' W 122°19'0 0.0
2017-Sep-15 14:58N 37°49' W 122°19'0 0.0
2017-Sep-15 14:28N 37°49' W 122°19'0 0.0
2017-Sep-15 13:58N 37°49' W 122°19'0 0.0
2017-Sep-15 13:28N 37°49' W 122°19'0 0.0
2017-Sep-15 12:58N 37°49' W 122°19'0 0.0
2017-Sep-15 12:28N 37°49' W 122°19'0 0.0
2017-Sep-15 11:58N 37°49' W 122°19'0 0.0
2017-Sep-15 11:28N 37°49' W 122°19'0 0.0
2017-Sep-15 10:58N 37°49' W 122°19'0 0.0
2017-Sep-15 10:28N 37°49' W 122°19'1 3.0
2017-Sep-15 10:00N 37°49' W 122°20'4 8.6
2017-Sep-15 09:30N 37°52' W 122°24'3 5.3
2017-Sep-15 09:00N 37°54' W 122°22'0 1.0
2017-Sep-15 08:30N 37°54' W 122°22'2 3.1
2017-Sep-15 08:00N 37°54' W 122°24'0 0.4
2017-Sep-15 07:31N 37°54' W 122°24'1 1.2
2017-Sep-15 07:00N 37°55' W 122°23'0 0.0
2017-Sep-15 06:30N 37°55' W 122°23'0 0.0
2017-Sep-15 06:00N 37°55' W 122°23'0 0.0
2017-Sep-15 05:30N 37°55' W 122°23'0 0.0
2017-Sep-15 05:00N 37°55' W 122°23'0 0.0
2017-Sep-15 04:30N 37°55' W 122°23'0 0.0
2017-Sep-15 04:00N 37°55' W 122°23'0 0.0
2017-Sep-15 03:30N 37°55' W 122°23'0 0.0
2017-Sep-15 03:00N 37°55' W 122°23'1 2.7
2017-Sep-15 02:30N 37°55' W 122°25'2 5.0
2017-Sep-15 02:00N 37°54' W 122°22'1 2.0
2017-Sep-15 01:30N 37°55' W 122°22'1 2.4
2017-Sep-15 01:00N 37°54' W 122°23'3 6.1
2017-Sep-15 00:30N 37°51' W 122°23'4 7.1
2017-Sep-15 00:00N 37°49' W 122°20'0 0.3
2017-Sep-14 23:30N 37°49' W 122°20'0 0.1
2017-Sep-14 23:00N 37°49' W 122°20'1 2.1
2017-Sep-14 22:29N 37°49' W 122°19'0 0.0
2017-Sep-14 21:59N 37°49' W 122°19'0 0.0
2017-Sep-14 21:29N 37°49' W 122°19'0 0.0
2017-Sep-14 20:56N 37°49' W 122°19'0 0.0
2017-Sep-14 20:29N 37°49' W 122°19'0 0.0
2017-Sep-14 19:59N 37°49' W 122°19'0 0.0
2017-Sep-14 19:26N 37°49' W 122°19'0 0.0
2017-Sep-14 18:59N 37°49' W 122°19'0 0.0
2017-Sep-14 18:29N 37°49' W 122°19'0 0.0
2017-Sep-14 17:59N 37°49' W 122°19'0 0.0
2017-Sep-14 17:29N 37°49' W 122°19'0 0.0
2017-Sep-14 16:59N 37°49' W 122°19'0 0.0
2017-Sep-14 16:29N 37°49' W 122°19'0 0.0
2017-Sep-14 15:59N 37°49' W 122°19'0 0.0
2017-Sep-14 15:29N 37°49' W 122°19'0 0.0
2017-Sep-14 14:59N 37°49' W 122°19'0 0.0
2017-Sep-14 14:29N 37°49' W 122°19'0 0.0
2017-Sep-14 13:59N 37°49' W 122°19'0 0.0
2017-Sep-14 13:29N 37°49' W 122°19'0 0.0
2017-Sep-14 12:59N 37°49' W 122°19'0 0.0
2017-Sep-14 12:29N 37°49' W 122°19'0 0.9
2017-Sep-14 12:01N 37°49' W 122°19'2 3.1
2017-Sep-14 11:31N 37°48' W 122°18'1 2.0
2017-Sep-14 11:00N 37°48' W 122°17'1 1.5
2017-Sep-14 10:31N 37°48' W 122°18'1 1.6
2017-Sep-14 10:01N 37°48' W 122°19'0 0.1
2017-Sep-14 09:30N 37°48' W 122°19'1 2.6
2017-Sep-14 09:01N 37°49' W 122°19'0 0.6
2017-Sep-14 08:30N 37°49' W 122°19'0 0.0
2017-Sep-14 08:00N 37°49' W 122°19'0 0.0
2017-Sep-14 07:30N 37°49' W 122°19'0 0.0
2017-Sep-14 07:00N 37°49' W 122°19'0 0.0
2017-Sep-14 06:30N 37°49' W 122°19'0 0.0
2017-Sep-14 05:56N 37°49' W 122°19'0 0.0
2017-Sep-14 05:30N 37°49' W 122°19'0 0.0
2017-Sep-14 05:00N 37°49' W 122°19'0 0.0
2017-Sep-14 04:30N 37°49' W 122°19'0 0.0
2017-Sep-14 04:00N 37°49' W 122°19'0 0.0
2017-Sep-14 03:30N 37°49' W 122°19'0 0.0
2017-Sep-14 02:57N 37°49' W 122°19'0 0.0
2017-Sep-14 02:29N 37°49' W 122°19'0 0.0
2017-Sep-14 02:00N 37°49' W 122°19'2 3.5
2017-Sep-14 01:30N 37°48' W 122°20'1 2.2
2017-Sep-14 01:00N 37°48' W 122°19'0 0.4
2017-Sep-14 00:30N 37°48' W 122°19'0 0.0
2017-Sep-14 00:01N 37°48' W 122°19'1 3.0
2017-Sep-13 23:30N 37°48' W 122°21'1 1.7
2017-Sep-13 23:01N 37°49' W 122°20'2 3.5
2017-Sep-13 22:31N 37°48' W 122°22'2 4.7
2017-Sep-13 22:01N 37°49' W 122°19'0 0.7
2017-Sep-13 21:29N 37°49' W 122°19'0 0.0
2017-Sep-13 20:56N 37°49' W 122°19'0 0.0
2017-Sep-13 20:29N 37°49' W 122°19'0 0.0
2017-Sep-13 19:59N 37°49' W 122°19'0 0.0
2017-Sep-13 19:29N 37°49' W 122°19'0 0.0
2017-Sep-13 18:59N 37°49' W 122°19'0 0.0
2017-Sep-13 18:29N 37°49' W 122°19'0 0.0
2017-Sep-13 17:59N 37°49' W 122°19'0 0.0
2017-Sep-13 17:29N 37°49' W 122°19'0 0.0
2017-Sep-13 16:59N 37°49' W 122°19'0 0.0
2017-Sep-13 16:29N 37°49' W 122°19'0 0.0
2017-Sep-13 15:56N 37°49' W 122°19'0 0.0
2017-Sep-13 15:29N 37°49' W 122°19'2 3.3
2017-Sep-13 15:00N 37°48' W 122°20'0 0.2
2017-Sep-13 14:31N 37°49' W 122°20'0 0.5
2017-Sep-13 14:00N 37°49' W 122°20'1 2.2
2017-Sep-13 13:29N 37°48' W 122°21'2 4.7
2017-Sep-13 12:58N 37°49' W 122°19'0 0.0
2017-Sep-13 12:28N 37°49' W 122°19'0 0.0
2017-Sep-13 11:58N 37°49' W 122°19'0 0.0
2017-Sep-13 11:28N 37°49' W 122°19'0 0.0
2017-Sep-13 10:58N 37°49' W 122°19'0 0.0
2017-Sep-13 10:28N 37°49' W 122°19'0 0.0
2017-Sep-13 09:58N 37°49' W 122°19'0 0.0
2017-Sep-13 09:28N 37°49' W 122°19'0 0.0
2017-Sep-13 08:58N 37°49' W 122°19'0 0.0
2017-Sep-13 08:28N 37°49' W 122°19'0 0.0
2017-Sep-13 07:58N 37°49' W 122°19'0 0.0
2017-Sep-13 07:28N 37°49' W 122°19'0 0.0
2017-Sep-13 06:58N 37°49' W 122°19'0 0.0
2017-Sep-13 06:28N 37°49' W 122°19'0 0.0
2017-Sep-13 05:58N 37°49' W 122°19'0 0.0
2017-Sep-13 05:28N 37°49' W 122°19'0 0.0
2017-Sep-13 04:58N 37°49' W 122°19'0 0.0
2017-Sep-13 04:28N 37°49' W 122°19'0 0.0
2017-Sep-13 03:58N 37°49' W 122°19'0 0.0
2017-Sep-13 03:28N 37°49' W 122°19'0 0.0
2017-Sep-13 02:58N 37°49' W 122°19'0 0.0
2017-Sep-13 02:28N 37°49' W 122°19'0 0.0
2017-Sep-13 01:55N 37°49' W 122°19'0 0.0
2017-Sep-13 01:28N 37°49' W 122°19'0 0.0
2017-Sep-13 00:59N 37°49' W 122°19'2 3.5
2017-Sep-13 00:30N 37°48' W 122°21'1 3.0
2017-Sep-13 00:00N 37°48' W 122°19'1 1.5
2017-Sep-12 23:29N 37°48' W 122°18'0 0.5
2017-Sep-12 23:01N 37°48' W 122°18'3 5.2
2017-Sep-12 22:30N 37°48' W 122°21'0 0.5
2017-Sep-12 21:58N 37°48' W 122°21'0 0.0
2017-Sep-12 21:28N 37°48' W 122°21'0 0.0
2017-Sep-12 20:58N 37°48' W 122°21'0 0.0
2017-Sep-12 20:28N 37°48' W 122°21'2 3.5
2017-Sep-12 19:59N 37°48' W 122°19'0 0.3
2017-Sep-12 19:31N 37°48' W 122°19'2 4.3
2017-Sep-12 19:00N 37°48' W 122°21'2 4.8
2017-Sep-12 18:30N 37°49' W 122°19'0 0.0
2017-Sep-12 18:00N 37°49' W 122°19'0 0.0
2017-Sep-12 17:31N 37°49' W 122°19'0 0.0
2017-Sep-12 17:01N 37°49' W 122°19'0 0.0
2017-Sep-12 16:27N 37°49' W 122°19'0 0.0
2017-Sep-12 16:00N 37°49' W 122°19'0 0.0
2017-Sep-12 15:30N 37°49' W 122°19'0 0.0
2017-Sep-12 15:00N 37°49' W 122°19'0 0.0
2017-Sep-12 14:31N 37°49' W 122°19'0 0.0
2017-Sep-12 14:01N 37°49' W 122°19'0 0.0
2017-Sep-12 13:31N 37°49' W 122°19'0 0.0
2017-Sep-12 13:00N 37°49' W 122°19'0 0.0
2017-Sep-12 12:31N 37°49' W 122°19'0 0.0
2017-Sep-12 12:01N 37°49' W 122°19'0 0.0
2017-Sep-12 11:31N 37°49' W 122°19'0 0.0
2017-Sep-12 11:01N 37°49' W 122°19'0 0.0
2017-Sep-12 10:31N 37°49' W 122°19'0 0.0
2017-Sep-12 10:01N 37°49' W 122°19'0 0.0
2017-Sep-12 09:31N 37°49' W 122°19'0 0.0
2017-Sep-12 09:01N 37°49' W 122°19'0 0.0
2017-Sep-12 08:30N 37°49' W 122°19'0 0.0
2017-Sep-12 08:01N 37°49' W 122°19'0 0.0
2017-Sep-12 07:31N 37°49' W 122°19'0 0.0
2017-Sep-12 07:01N 37°49' W 122°19'0 0.0
2017-Sep-12 06:30N 37°49' W 122°19'0 0.0
2017-Sep-12 05:57N 37°49' W 122°19'0 0.0
2017-Sep-12 05:30N 37°49' W 122°19'0 0.0
2017-Sep-12 05:00N 37°49' W 122°19'0 0.0
2017-Sep-12 04:30N 37°49' W 122°19'0 0.0
2017-Sep-12 04:00N 37°49' W 122°19'0 0.0
2017-Sep-12 03:30N 37°49' W 122°19'0 0.0
2017-Sep-12 03:00N 37°49' W 122°19'0 0.0
2017-Sep-12 02:30N 37°49' W 122°19'0 0.0
2017-Sep-12 02:00N 37°49' W 122°19'  
Track history (hours):
 
Tides and Currents Weather Stations Pressure Air Temp Water Temp Dewpoint Dewpoint Depression Visibility Wind Speed Wind Dir Waves Ship Positions

Sandra Hugh

Owner: AMNAV Maritime Corporation, Oakland, CA. More information available from US FCC via Universal Licensing System and Coast Guard Vessel Documentation Center.

Last reported at 2017-Sep-22 01:59 UTC. Time now 2017-Sep-23 09:31 UTC.
Position N 37°46' W 122°21'.

Length 24 m; draft 4.9 m.

Type: Tug. MMSI: 367305920.

Date/timePositionNaut miles runAvg speedWind from/ knotsBaromVisibWave heightAir tempDewpointWater temp
2017-Sep-22 01:59N 37°46' W 122°21'0 0.5
2017-Sep-22 01:31N 37°47' W 122°21'0 0.1
2017-Sep-22 00:58N 37°46' W 122°21'0 0.1
2017-Sep-22 00:29N 37°47' W 122°21'0 0.1
2017-Sep-21 23:59N 37°46' W 122°21'0 0.0
2017-Sep-21 23:28N 37°47' W 122°21'0 0.1
2017-Sep-21 23:00N 37°46' W 122°21'0 0.1
2017-Sep-21 22:29N 37°46' W 122°21'0 0.5
2017-Sep-21 21:59N 37°46' W 122°21'0 0.9
2017-Sep-21 21:29N 37°46' W 122°21'0 0.4
2017-Sep-21 20:59N 37°46' W 122°21'0 0.5
2017-Sep-21 20:30N 37°46' W 122°21'0 0.2
2017-Sep-21 20:00N 37°46' W 122°21'0 0.1
2017-Sep-21 19:28N 37°46' W 122°21'2 4.1
2017-Sep-21 19:00N 37°48' W 122°21'1 2.1
2017-Sep-21 18:29N 37°49' W 122°20'1 2.4
2017-Sep-21 18:00N 37°48' W 122°21'1 1.4
2017-Sep-21 17:30N 37°49' W 122°20'1 2.6
2017-Sep-21 16:58N 37°49' W 122°19'0 0.0
2017-Sep-21 16:28N 37°49' W 122°19'0 0.0
2017-Sep-21 15:58N 37°49' W 122°19'0 0.0
2017-Sep-21 15:28N 37°49' W 122°19'0 0.0
2017-Sep-21 14:58N 37°49' W 122°19'0 0.0
2017-Sep-21 14:28N 37°49' W 122°19'0 0.0
2017-Sep-21 13:58N 37°49' W 122°19'0 0.0
2017-Sep-21 13:28N 37°49' W 122°19'0 0.0
2017-Sep-21 12:58N 37°49' W 122°19'0 0.0
2017-Sep-21 12:28N 37°49' W 122°19'0 0.0
2017-Sep-21 11:58N 37°49' W 122°19'0 0.0
2017-Sep-21 11:28N 37°49' W 122°19'0 0.0
2017-Sep-21 10:58N 37°49' W 122°19'0 0.0
2017-Sep-21 10:28N 37°49' W 122°19'0 0.0
2017-Sep-21 09:58N 37°49' W 122°19'0 0.0
2017-Sep-21 09:28N 37°49' W 122°19'0 0.0
2017-Sep-21 08:58N 37°49' W 122°19'0 0.0
2017-Sep-21 08:28N 37°49' W 122°19'0 0.0
2017-Sep-21 07:55N 37°49' W 122°19'0 0.0
2017-Sep-21 07:28N 37°49' W 122°19'0 0.0
2017-Sep-21 06:58N 37°49' W 122°19'0 0.0
2017-Sep-21 06:25N 37°49' W 122°19'0 0.0
2017-Sep-21 05:55N 37°49' W 122°19'0 0.0
2017-Sep-21 05:22N 37°49' W 122°19'0 0.0
2017-Sep-21 04:58N 37°49' W 122°19'1 2.2
2017-Sep-21 04:30N 37°49' W 122°20'1 2.1
2017-Sep-21 03:59N 37°48' W 122°19'1 2.6
2017-Sep-21 03:30N 37°48' W 122°18'1 2.6
2017-Sep-21 03:00N 37°48' W 122°19'3 5.1
2017-Sep-21 02:30N 37°48' W 122°22'2 3.0
2017-Sep-21 01:58N 37°48' W 122°21'0 0.0
2017-Sep-21 01:28N 37°48' W 122°21'0 0.0
2017-Sep-21 00:58N 37°48' W 122°21'0 0.8
2017-Sep-21 00:31N 37°49' W 122°20'0 0.9
2017-Sep-20 23:58N 37°49' W 122°20'0 0.1
2017-Sep-20 23:28N 37°49' W 122°20'1 2.0
2017-Sep-20 22:58N 37°49' W 122°19'0 0.0
2017-Sep-20 22:22N 37°49' W 122°19'0 0.0
2017-Sep-20 21:58N 37°49' W 122°19'0 0.0
2017-Sep-20 21:28N 37°49' W 122°19'0 0.0
2017-Sep-20 20:58N 37°49' W 122°19'0 0.0
2017-Sep-20 20:28N 37°49' W 122°19'0 0.0
2017-Sep-20 19:58N 37°49' W 122°19'0 0.0
2017-Sep-20 19:28N 37°49' W 122°19'0 0.0
2017-Sep-20 18:58N 37°49' W 122°19'0 0.0
2017-Sep-20 18:28N 37°49' W 122°19'0 0.0
2017-Sep-20 17:58N 37°49' W 122°19'0 0.0
2017-Sep-20 17:28N 37°49' W 122°19'0 0.0
2017-Sep-20 16:55N 37°49' W 122°19'0 0.0
2017-Sep-20 16:25N 37°49' W 122°19'0 0.0
2017-Sep-20 15:58N 37°49' W 122°19'0 0.0
2017-Sep-20 15:28N 37°49' W 122°19'0 0.0
2017-Sep-20 14:52N 37°49' W 122°19'0 0.0
2017-Sep-20 13:58N 37°49' W 122°19'2 4.0
2017-Sep-20 13:30N 37°48' W 122°18'0 0.4
2017-Sep-20 12:59N 37°48' W 122°18'1 1.5
2017-Sep-20 12:30N 37°48' W 122°19'3 5.3
2017-Sep-20 12:00N 37°48' W 122°22'0 0.8
2017-Sep-20 11:30N 37°48' W 122°22'1 2.6
2017-Sep-20 10:58N 37°48' W 122°21'0 0.0
2017-Sep-20 10:28N 37°48' W 122°21'1 1.8
2017-Sep-20 10:01N 37°48' W 122°20'1 1.7
2017-Sep-20 09:30N 37°48' W 122°20'2 3.0
2017-Sep-20 08:58N 37°49' W 122°19'0 0.0
2017-Sep-20 08:28N 37°49' W 122°19'0 0.0
2017-Sep-20 07:59N 37°49' W 122°19'0 0.0
2017-Sep-20 07:28N 37°49' W 122°19'0 0.0
2017-Sep-20 06:58N 37°49' W 122°19'0 0.0
2017-Sep-20 06:29N 37°49' W 122°19'0 0.0
2017-Sep-20 05:59N 37°49' W 122°19'0 0.0
2017-Sep-20 05:29N 37°49' W 122°19'0 0.0
2017-Sep-20 04:59N 37°49' W 122°19'0 0.0
2017-Sep-20 04:29N 37°49' W 122°19'0 0.0
2017-Sep-20 03:58N 37°49' W 122°19'0 0.0
2017-Sep-20 03:28N 37°49' W 122°19'0 0.0
2017-Sep-20 02:59N 37°49' W 122°19'0 0.0
2017-Sep-20 02:28N 37°49' W 122°19'0 0.0
2017-Sep-20 01:59N 37°49' W 122°19'0 0.0
2017-Sep-20 01:28N 37°49' W 122°19'0 0.0
2017-Sep-20 00:56N 37°49' W 122°19'2 3.2
2017-Sep-20 00:28N 37°48' W 122°19'0 0.7
2017-Sep-19 23:59N 37°48' W 122°19'1 2.6
2017-Sep-19 23:28N 37°48' W 122°17'2 4.1
2017-Sep-19 23:00N 37°48' W 122°20'2 4.0
2017-Sep-19 22:30N 37°48' W 122°22'1 2.6
2017-Sep-19 22:00N 37°48' W 122°21'2 3.3
2017-Sep-19 21:30N 37°49' W 122°19'0 0.8
2017-Sep-19 20:59N 37°49' W 122°19'0 0.0
2017-Sep-19 20:29N 37°49' W 122°19'0 0.0
2017-Sep-19 19:59N 37°49' W 122°19'0 0.0
2017-Sep-19 19:29N 37°49' W 122°19'0 0.0
2017-Sep-19 18:59N 37°49' W 122°19'0 0.0
2017-Sep-19 18:29N 37°49' W 122°19'0 0.0
2017-Sep-19 17:56N 37°49' W 122°19'0 0.0
2017-Sep-19 17:29N 37°49' W 122°19'0 0.0
2017-Sep-19 16:59N 37°49' W 122°19'0 0.0
2017-Sep-19 16:29N 37°49' W 122°19'0 0.0
2017-Sep-19 15:56N 37°49' W 122°19'0 0.0
2017-Sep-19 15:29N 37°49' W 122°19'0 0.0
2017-Sep-19 14:59N 37°49' W 122°19'0 0.0
2017-Sep-19 14:23N 37°49' W 122°19'0 0.0
2017-Sep-19 13:59N 37°49' W 122°19'0 0.0
2017-Sep-19 13:29N 37°49' W 122°19'0 0.0
2017-Sep-19 12:59N 37°49' W 122°19'0 0.0
2017-Sep-19 12:29N 37°49' W 122°19'0 0.0
2017-Sep-19 11:59N 37°49' W 122°19'0 0.0
2017-Sep-19 11:29N 37°49' W 122°19'0 0.0
2017-Sep-19 10:59N 37°49' W 122°19'0 0.0
2017-Sep-19 10:29N 37°49' W 122°19'0 0.0
2017-Sep-19 09:59N 37°49' W 122°19'0 0.0
2017-Sep-19 09:29N 37°49' W 122°19'2 3.8
2017-Sep-19 09:01N 37°48' W 122°20'2 4.2
2017-Sep-19 08:30N 37°48' W 122°18'0 0.1
2017-Sep-19 08:00N 37°48' W 122°18'1 2.5
2017-Sep-19 07:30N 37°48' W 122°19'2 3.0
2017-Sep-19 06:58N 37°49' W 122°19'0 0.0
2017-Sep-19 06:28N 37°49' W 122°19'0 0.0
2017-Sep-19 05:58N 37°49' W 122°19'0 0.0
2017-Sep-19 05:28N 37°49' W 122°19'0 0.0
2017-Sep-19 04:58N 37°49' W 122°19'0 0.0
2017-Sep-19 04:28N 37°49' W 122°19'0 0.0
2017-Sep-19 03:58N 37°49' W 122°19'0 0.0
2017-Sep-19 03:28N 37°49' W 122°19'0 0.0
2017-Sep-19 02:58N 37°49' W 122°19'0 0.0
2017-Sep-19 02:28N 37°49' W 122°19'0 0.0
2017-Sep-19 01:58N 37°49' W 122°19'0 0.0
2017-Sep-19 01:28N 37°49' W 122°19'1 2.0
2017-Sep-19 01:00N 37°49' W 122°20'0 0.5
2017-Sep-19 00:30N 37°49' W 122°19'0 0.0
2017-Sep-18 23:57N 37°49' W 122°19'1 1.8
2017-Sep-18 23:30N 37°49' W 122°19'0 0.0
2017-Sep-18 23:00N 37°49' W 122°19'0 0.0
2017-Sep-18 22:30N 37°49' W 122°19'0 0.0
2017-Sep-18 22:00N 37°49' W 122°19'0 0.0
2017-Sep-18 21:30N 37°49' W 122°19'0 0.0
2017-Sep-18 21:00N 37°49' W 122°19'0 0.0
2017-Sep-18 20:30N 37°49' W 122°19'0 0.0
2017-Sep-18 20:00N 37°49' W 122°19'0 0.0
2017-Sep-18 19:30N 37°49' W 122°19'0 0.0
2017-Sep-18 19:00N 37°49' W 122°19'0 0.0
2017-Sep-18 18:30N 37°49' W 122°19'0 0.0
2017-Sep-18 17:57N 37°49' W 122°19'0 0.0
2017-Sep-18 17:30N 37°49' W 122°19'0 0.0
2017-Sep-18 17:00N 37°49' W 122°19'0 0.0
2017-Sep-18 16:30N 37°49' W 122°19'0 0.0
2017-Sep-18 16:00N 37°49' W 122°19'0 0.0
2017-Sep-18 15:30N 37°49' W 122°19'0 0.0
2017-Sep-18 15:00N 37°49' W 122°19'0 0.0
2017-Sep-18 14:30N 37°49' W 122°19'0 0.0
2017-Sep-18 14:00N 37°49' W 122°19'0 0.0
2017-Sep-18 13:30N 37°49' W 122°19'0 0.0
2017-Sep-18 13:00N 37°49' W 122°19'0 0.0
2017-Sep-18 12:30N 37°49' W 122°19'0 0.0
2017-Sep-18 12:00N 37°49' W 122°19'0 0.0
2017-Sep-18 11:30N 37°49' W 122°19'0 0.0
2017-Sep-18 11:00N 37°49' W 122°19'0 0.0
2017-Sep-18 10:30N 37°49' W 122°19'0 0.0
2017-Sep-18 10:00N 37°49' W 122°19'0 0.0
2017-Sep-18 09:30N 37°49' W 122°19'0 0.0
2017-Sep-18 09:00N 37°49' W 122°19'0 0.0
2017-Sep-18 08:30N 37°49' W 122°19'0 0.0
2017-Sep-18 08:00N 37°49' W 122°19'0 0.0
2017-Sep-18 07:30N 37°49' W 122°19'0 0.0
2017-Sep-18 07:00N 37°49' W 122°19'0 0.0
2017-Sep-18 06:30N 37°49' W 122°19'0 0.0
2017-Sep-18 06:00N 37°49' W 122°19'0 0.0
2017-Sep-18 05:30N 37°49' W 122°19'0 0.0
2017-Sep-18 05:00N 37°49' W 122°19'0 0.0
2017-Sep-18 04:30N 37°49' W 122°19'0 0.0
2017-Sep-18 04:00N 37°49' W 122°19'0 0.0
2017-Sep-18 03:30N 37°49' W 122°19'0 0.0
2017-Sep-18 03:00N 37°49' W 122°19'0 0.0
2017-Sep-18 02:30N 37°49' W 122°19'0 0.0
2017-Sep-18 02:00N 37°49' W 122°19'0 0.0
2017-Sep-18 01:30N 37°49' W 122°19'0 0.0
2017-Sep-18 01:01N 37°49' W 122°19'2 3.4
2017-Sep-18 00:30N 37°48' W 122°19'1 1.5
2017-Sep-18 00:01N 37°48' W 122°18'1 1.1
2017-Sep-17 23:31N 37°48' W 122°18'1 2.1
2017-Sep-17 23:00N 37°48' W 122°20'2 2.8
2017-Sep-17 22:25N 37°49' W 122°19'0 0.0
2017-Sep-17 21:58N 37°49' W 122°19'0 0.0
2017-Sep-17 21:28N 37°49' W 122°19'0 0.0
2017-Sep-17 20:58N 37°49' W 122°19'0 0.0
2017-Sep-17 20:25N 37°49' W 122°19'0 0.0
2017-Sep-17 19:58N 37°49' W 122°19'0 0.0
2017-Sep-17 19:28N 37°49' W 122°19'0 0.0
2017-Sep-17 18:58N 37°49' W 122°19'0 0.0
2017-Sep-17 18:28N 37°49' W 122°19'0 0.0
2017-Sep-17 17:58N 37°49' W 122°19'0 0.0
2017-Sep-17 17:28N 37°49' W 122°19'0 0.0
2017-Sep-17 16:58N 37°49' W 122°19'0 0.0
2017-Sep-17 16:28N 37°49' W 122°19'0 0.0
2017-Sep-17 15:58N 37°49' W 122°19'0 0.0
2017-Sep-17 15:28N 37°49' W 122°19'0 0.0
2017-Sep-17 14:58N 37°49' W 122°19'0 0.0
2017-Sep-17 14:28N 37°49' W 122°19'0 0.0
2017-Sep-17 13:58N 37°49' W 122°19'0 0.0
2017-Sep-17 13:29N 37°49' W 122°19'1 2.5
2017-Sep-17 12:58N 37°49' W 122°20'0 0.6
2017-Sep-17 12:31N 37°49' W 122°20'1 2.9
2017-Sep-17 12:00N 37°48' W 122°22'1 1.6
2017-Sep-17 11:29N 37°48' W 122°21'0 0.0
2017-Sep-17 10:59N 37°48' W 122°21'0 0.0
2017-Sep-17 10:29N 37°48' W 122°21'0 0.0
2017-Sep-17 09:59N 37°48' W 122°21'1 1.6
2017-Sep-17 09:28N 37°49' W 122°20'0 0.3
2017-Sep-17 08:57N 37°49' W 122°20'1 2.2
2017-Sep-17 08:30N 37°49' W 122°19'0 0.0
2017-Sep-17 08:00N 37°49' W 122°19'0 0.0
2017-Sep-17 07:30N 37°49' W 122°19'0 0.0
2017-Sep-17 07:00N 37°49' W 122°19'0 0.0
2017-Sep-17 06:30N 37°49' W 122°19'0 0.0
2017-Sep-17 06:00N 37°49' W 122°19'0 0.0
2017-Sep-17 05:30N 37°49' W 122°19'0 0.0
2017-Sep-17 05:00N 37°49' W 122°19'0 0.0
2017-Sep-17 04:30N 37°49' W 122°19'0 0.0
2017-Sep-17 04:00N 37°49' W 122°19'0 0.0
2017-Sep-17 03:30N 37°49' W 122°19'0 0.0
2017-Sep-17 03:00N 37°49' W 122°19'0 0.0
2017-Sep-17 02:30N 37°49' W 122°19'0 0.0
2017-Sep-17 02:00N 37°49' W 122°19'0 0.0
2017-Sep-17 01:30N 37°49' W 122°19'0 0.0
2017-Sep-17 01:00N 37°49' W 122°19'0 0.0
2017-Sep-17 00:30N 37°49' W 122°19'0 0.0
2017-Sep-17 00:00N 37°49' W 122°19'0 0.0
2017-Sep-16 23:30N 37°49' W 122°19'0 0.0
2017-Sep-16 23:00N 37°49' W 122°19'0 0.0
2017-Sep-16 22:30N 37°49' W 122°19'0 0.0
2017-Sep-16 22:00N 37°49' W 122°19'0 0.0
2017-Sep-16 21:30N 37°49' W 122°19'0 0.0
2017-Sep-16 21:00N 37°49' W 122°19'0 0.0
2017-Sep-16 20:30N 37°49' W 122°19'0 0.0
2017-Sep-16 20:00N 37°49' W 122°19'0 0.0
2017-Sep-16 19:30N 37°49' W 122°19'0 0.0
2017-Sep-16 19:00N 37°49' W 122°19'0 0.0
2017-Sep-16 18:30N 37°49' W 122°19'0 0.0
2017-Sep-16 18:00N 37°49' W 122°19'0 0.0
2017-Sep-16 17:30N 37°49' W 122°19'0 0.0
2017-Sep-16 17:00N 37°49' W 122°19'0 0.0
2017-Sep-16 16:30N 37°49' W 122°19'0 0.0
2017-Sep-16 16:00N 37°49' W 122°19'0 0.0
2017-Sep-16 15:30N 37°49' W 122°19'0 0.0
2017-Sep-16 15:00N 37°49' W 122°19'0 0.0
2017-Sep-16 14:30N 37°49' W 122°19'0 0.0
2017-Sep-16 14:00N 37°49' W 122°19'2 2.7
2017-Sep-16 13:25N 37°48' W 122°20'0 1.0
2017-Sep-16 13:00N 37°49' W 122°20'0 0.7
2017-Sep-16 12:31N 37°49' W 122°20'0 0.7
2017-Sep-16 12:01N 37°48' W 122°21'0 0.0
2017-Sep-16 11:26N 37°48' W 122°21'0 0.0
2017-Sep-16 10:59N 37°48' W 122°21'2 4.4
2017-Sep-16 10:31N 37°48' W 122°18'0 0.9
2017-Sep-16 10:01N 37°48' W 122°19'0 0.7
2017-Sep-16 09:29N 37°48' W 122°19'1 2.7
2017-Sep-16 09:01N 37°48' W 122°21'2 3.6
2017-Sep-16 08:30N 37°49' W 122°19'0 0.0
2017-Sep-16 08:00N 37°49' W 122°19'0 0.0
2017-Sep-16 07:30N 37°49' W 122°19'0 0.0
2017-Sep-16 07:00N 37°49' W 122°19'0 0.0
2017-Sep-16 06:30N 37°49' W 122°19'0 0.0
2017-Sep-16 06:00N 37°49' W 122°19'0 0.0
2017-Sep-16 05:30N 37°49' W 122°19'0 0.0
2017-Sep-16 05:00N 37°49' W 122°19'0 0.0
2017-Sep-16 04:30N 37°49' W 122°19'0 0.0
2017-Sep-16 04:00N 37°49' W 122°19'0 0.0
2017-Sep-16 03:30N 37°49' W 122°19'0 0.0
2017-Sep-16 03:00N 37°49' W 122°19'0 0.0
2017-Sep-16 02:30N 37°49' W 122°19'0 0.0
2017-Sep-16 02:00N 37°49' W 122°19'1 2.0
2017-Sep-16 01:31N 37°49' W 122°20'2 4.2
2017-Sep-16 01:00N 37°48' W 122°17'1 1.7
2017-Sep-16 00:29N 37°48' W 122°18'1 1.5
2017-Sep-16 00:00N 37°48' W 122°19'1 1.9
2017-Sep-15 23:29N 37°49' W 122°20'0 0.7
2017-Sep-15 23:00N 37°49' W 122°20'1 1.3
2017-Sep-15 22:30N 37°48' W 122°21'2 3.7
2017-Sep-15 21:58N 37°49' W 122°19'0 0.0
2017-Sep-15 21:28N 37°49' W 122°19'0 0.0
2017-Sep-15 20:58N 37°49' W 122°19'0 0.0
2017-Sep-15 20:28N 37°49' W 122°19'0 0.0
2017-Sep-15 19:58N 37°49' W 122°19'0 0.0
2017-Sep-15 19:28N 37°49' W 122°19'0 0.0
2017-Sep-15 18:55N 37°49' W 122°19'0 0.0
2017-Sep-15 18:28N 37°49' W 122°19'0 0.0
2017-Sep-15 17:58N 37°49' W 122°19'0 0.0
2017-Sep-15 17:28N 37°49' W 122°19'0 0.0
2017-Sep-15 16:58N 37°49' W 122°19'0 0.0
2017-Sep-15 16:28N 37°49' W 122°19'0 0.0
2017-Sep-15 15:58N 37°49' W 122°19'0 0.0
2017-Sep-15 15:28N 37°49' W 122°19'0 0.0
2017-Sep-15 14:58N 37°49' W 122°19'0 0.0
2017-Sep-15 14:28N 37°49' W 122°19'0 0.0
2017-Sep-15 13:58N 37°49' W 122°19'0 0.0
2017-Sep-15 13:28N 37°49' W 122°19'0 0.0
2017-Sep-15 12:58N 37°49' W 122°19'0 0.0
2017-Sep-15 12:28N 37°49' W 122°19'0 0.0
2017-Sep-15 11:58N 37°49' W 122°19'0 0.0
2017-Sep-15 11:28N 37°49' W 122°19'0 0.0
2017-Sep-15 10:58N 37°49' W 122°19'0 0.0
2017-Sep-15 10:28N 37°49' W 122°19'1 3.0
2017-Sep-15 10:00N 37°49' W 122°20'4 8.6
2017-Sep-15 09:30N 37°52' W 122°24'3 5.3
2017-Sep-15 09:00N 37°54' W 122°22'0 1.0
2017-Sep-15 08:30N 37°54' W 122°22'2 3.1
2017-Sep-15 08:00N 37°54' W 122°24'0 0.4
2017-Sep-15 07:31N 37°54' W 122°24'1 1.2
2017-Sep-15 07:00N 37°55' W 122°23'0 0.0
2017-Sep-15 06:30N 37°55' W 122°23'0 0.0
2017-Sep-15 06:00N 37°55' W 122°23'0 0.0
2017-Sep-15 05:30N 37°55' W 122°23'0 0.0
2017-Sep-15 05:00N 37°55' W 122°23'0 0.0
2017-Sep-15 04:30N 37°55' W 122°23'0 0.0
2017-Sep-15 04:00N 37°55' W 122°23'0 0.0
2017-Sep-15 03:30N 37°55' W 122°23'0 0.0
2017-Sep-15 03:00N 37°55' W 122°23'1 2.7
2017-Sep-15 02:30N 37°55' W 122°25'2 5.0
2017-Sep-15 02:00N 37°54' W 122°22'1 2.0
2017-Sep-15 01:30N 37°55' W 122°22'1 2.4
2017-Sep-15 01:00N 37°54' W 122°23'3 6.1
2017-Sep-15 00:30N 37°51' W 122°23'4 7.1
2017-Sep-15 00:00N 37°49' W 122°20'0 0.3
2017-Sep-14 23:30N 37°49' W 122°20'0 0.1
2017-Sep-14 23:00N 37°49' W 122°20'1 2.1
2017-Sep-14 22:29N 37°49' W 122°19'0 0.0
2017-Sep-14 21:59N 37°49' W 122°19'0 0.0
2017-Sep-14 21:29N 37°49' W 122°19'0 0.0
2017-Sep-14 20:56N 37°49' W 122°19'0 0.0
2017-Sep-14 20:29N 37°49' W 122°19'0 0.0
2017-Sep-14 19:59N 37°49' W 122°19'0 0.0
2017-Sep-14 19:26N 37°49' W 122°19'0 0.0
2017-Sep-14 18:59N 37°49' W 122°19'0 0.0
2017-Sep-14 18:29N 37°49' W 122°19'0 0.0
2017-Sep-14 17:59N 37°49' W 122°19'0 0.0
2017-Sep-14 17:29N 37°49' W 122°19'0 0.0
2017-Sep-14 16:59N 37°49' W 122°19'0 0.0
2017-Sep-14 16:29N 37°49' W 122°19'0 0.0
2017-Sep-14 15:59N 37°49' W 122°19'0 0.0
2017-Sep-14 15:29N 37°49' W 122°19'0 0.0
2017-Sep-14 14:59N 37°49' W 122°19'0 0.0
2017-Sep-14 14:29N 37°49' W 122°19'0 0.0
2017-Sep-14 13:59N 37°49' W 122°19'0 0.0
2017-Sep-14 13:29N 37°49' W 122°19'0 0.0
2017-Sep-14 12:59N 37°49' W 122°19'0 0.0
2017-Sep-14 12:29N 37°49' W 122°19'0 0.9
2017-Sep-14 12:01N 37°49' W 122°19'2 3.1
2017-Sep-14 11:31N 37°48' W 122°18'1 2.0
2017-Sep-14 11:00N 37°48' W 122°17'1 1.5
2017-Sep-14 10:31N 37°48' W 122°18'1 1.6
2017-Sep-14 10:01N 37°48' W 122°19'0 0.1
2017-Sep-14 09:30N 37°48' W 122°19'1 2.6
2017-Sep-14 09:01N 37°49' W 122°19'0 0.6
2017-Sep-14 08:30N 37°49' W 122°19'0 0.0
2017-Sep-14 08:00N 37°49' W 122°19'0 0.0
2017-Sep-14 07:30N 37°49' W 122°19'0 0.0
2017-Sep-14 07:00N 37°49' W 122°19'0 0.0
2017-Sep-14 06:30N 37°49' W 122°19'0 0.0
2017-Sep-14 05:56N 37°49' W 122°19'0 0.0
2017-Sep-14 05:30N 37°49' W 122°19'0 0.0
2017-Sep-14 05:00N 37°49' W 122°19'0 0.0
2017-Sep-14 04:30N 37°49' W 122°19'0 0.0
2017-Sep-14 04:00N 37°49' W 122°19'0 0.0
2017-Sep-14 03:30N 37°49' W 122°19'0 0.0
2017-Sep-14 02:57N 37°49' W 122°19'0 0.0
2017-Sep-14 02:29N 37°49' W 122°19'0 0.0
2017-Sep-14 02:00N 37°49' W 122°19'2 3.5
2017-Sep-14 01:30N 37°48' W 122°20'1 2.2
2017-Sep-14 01:00N 37°48' W 122°19'0 0.4
2017-Sep-14 00:30N 37°48' W 122°19'0 0.0
2017-Sep-14 00:01N 37°48' W 122°19'1 3.0
2017-Sep-13 23:30N 37°48' W 122°21'1 1.7
2017-Sep-13 23:01N 37°49' W 122°20'2 3.5
2017-Sep-13 22:31N 37°48' W 122°22'2 4.7
2017-Sep-13 22:01N 37°49' W 122°19'0 0.7
2017-Sep-13 21:29N 37°49' W 122°19'0 0.0
2017-Sep-13 20:56N 37°49' W 122°19'0 0.0
2017-Sep-13 20:29N 37°49' W 122°19'0 0.0
2017-Sep-13 19:59N 37°49' W 122°19'0 0.0
2017-Sep-13 19:29N 37°49' W 122°19'0 0.0
2017-Sep-13 18:59N 37°49' W 122°19'0 0.0
2017-Sep-13 18:29N 37°49' W 122°19'0 0.0
2017-Sep-13 17:59N 37°49' W 122°19'0 0.0
2017-Sep-13 17:29N 37°49' W 122°19'0 0.0
2017-Sep-13 16:59N 37°49' W 122°19'0 0.0
2017-Sep-13 16:29N 37°49' W 122°19'0 0.0
2017-Sep-13 15:56N 37°49' W 122°19'0 0.0
2017-Sep-13 15:29N 37°49' W 122°19'2 3.3
2017-Sep-13 15:00N 37°48' W 122°20'0 0.2
2017-Sep-13 14:31N 37°49' W 122°20'0 0.5
2017-Sep-13 14:00N 37°49' W 122°20'1 2.2
2017-Sep-13 13:29N 37°48' W 122°21'2 4.7
2017-Sep-13 12:58N 37°49' W 122°19'0 0.0
2017-Sep-13 12:28N 37°49' W 122°19'0 0.0
2017-Sep-13 11:58N 37°49' W 122°19'0 0.0
2017-Sep-13 11:28N 37°49' W 122°19'0 0.0
2017-Sep-13 10:58N 37°49' W 122°19'0 0.0
2017-Sep-13 10:28N 37°49' W 122°19'0 0.0
2017-Sep-13 09:58N 37°49' W 122°19'0 0.0
2017-Sep-13 09:28N 37°49' W 122°19'0 0.0
2017-Sep-13 08:58N 37°49' W 122°19'0 0.0
2017-Sep-13 08:28N 37°49' W 122°19'0 0.0
2017-Sep-13 07:58N 37°49' W 122°19'0 0.0
2017-Sep-13 07:28N 37°49' W 122°19'0 0.0
2017-Sep-13 06:58N 37°49' W 122°19'0 0.0
2017-Sep-13 06:28N 37°49' W 122°19'0 0.0
2017-Sep-13 05:58N 37°49' W 122°19'0 0.0
2017-Sep-13 05:28N 37°49' W 122°19'0 0.0
2017-Sep-13 04:58N 37°49' W 122°19'0 0.0
2017-Sep-13 04:28N 37°49' W 122°19'0 0.0
2017-Sep-13 03:58N 37°49' W 122°19'0 0.0
2017-Sep-13 03:28N 37°49' W 122°19'0 0.0
2017-Sep-13 02:58N 37°49' W 122°19'0 0.0
2017-Sep-13 02:28N 37°49' W 122°19'0 0.0
2017-Sep-13 01:55N 37°49' W 122°19'0 0.0
2017-Sep-13 01:28N 37°49' W 122°19'0 0.0
2017-Sep-13 00:59N 37°49' W 122°19'2 3.5
2017-Sep-13 00:30N 37°48' W 122°21'1 3.0
2017-Sep-13 00:00N 37°48' W 122°19'1 1.5
2017-Sep-12 23:29N 37°48' W 122°18'0 0.5
2017-Sep-12 23:01N 37°48' W 122°18'3 5.2
2017-Sep-12 22:30N 37°48' W 122°21'0 0.5
2017-Sep-12 21:58N 37°48' W 122°21'0 0.0
2017-Sep-12 21:28N 37°48' W 122°21'0 0.0
2017-Sep-12 20:58N 37°48' W 122°21'0 0.0
2017-Sep-12 20:28N 37°48' W 122°21'2 3.5
2017-Sep-12 19:59N 37°48' W 122°19'0 0.3
2017-Sep-12 19:31N 37°48' W 122°19'2 4.3
2017-Sep-12 19:00N 37°48' W 122°21'2 4.8
2017-Sep-12 18:30N 37°49' W 122°19'0 0.0
2017-Sep-12 18:00N 37°49' W 122°19'0 0.0
2017-Sep-12 17:31N 37°49' W 122°19'0 0.0
2017-Sep-12 17:01N 37°49' W 122°19'0 0.0
2017-Sep-12 16:27N 37°49' W 122°19'0 0.0
2017-Sep-12 16:00N 37°49' W 122°19'0 0.0
2017-Sep-12 15:30N 37°49' W 122°19'0 0.0
2017-Sep-12 15:00N 37°49' W 122°19'0 0.0
2017-Sep-12 14:31N 37°49' W 122°19'0 0.0
2017-Sep-12 14:01N 37°49' W 122°19'0 0.0
2017-Sep-12 13:31N 37°49' W 122°19'0 0.0
2017-Sep-12 13:00N 37°49' W 122°19'0 0.0
2017-Sep-12 12:31N 37°49' W 122°19'0 0.0
2017-Sep-12 12:01N 37°49' W 122°19'0 0.0
2017-Sep-12 11:31N 37°49' W 122°19'0 0.0
2017-Sep-12 11:01N 37°49' W 122°19'0 0.0
2017-Sep-12 10:31N 37°49' W 122°19'0 0.0
2017-Sep-12 10:01N 37°49' W 122°19'0 0.0
2017-Sep-12 09:31N 37°49' W 122°19'0 0.0
2017-Sep-12 09:01N 37°49' W 122°19'0 0.0
2017-Sep-12 08:30N 37°49' W 122°19'0 0.0
2017-Sep-12 08:01N 37°49' W 122°19'0 0.0
2017-Sep-12 07:31N 37°49' W 122°19'0 0.0
2017-Sep-12 07:01N 37°49' W 122°19'0 0.0
2017-Sep-12 06:30N 37°49' W 122°19'0 0.0
2017-Sep-12 05:57N 37°49' W 122°19'0 0.0
2017-Sep-12 05:30N 37°49' W 122°19'0 0.0
2017-Sep-12 05:00N 37°49' W 122°19'0 0.0
2017-Sep-12 04:30N 37°49' W 122°19'0 0.0
2017-Sep-12 04:00N 37°49' W 122°19'0 0.0
2017-Sep-12 03:30N 37°49' W 122°19'0 0.0
2017-Sep-12 03:00N 37°49' W 122°19'0 0.0
2017-Sep-12 02:30N 37°49' W 122°19'0 0.0
2017-Sep-12 02:00N 37°49' W 122°19'  

Dump ship's entire track history